createdAt,value
2019-05-07T00:02:04.914Z,7.21
2019-05-07T00:04:33.601Z,7.19
2019-05-07T00:07:02.521Z,7.00
2019-05-07T00:09:32.317Z,7.08
2019-05-07T00:12:02.744Z,7.12
2019-05-07T00:14:31.988Z,7.07
2019-05-07T00:17:04.598Z,7.11
2019-05-07T00:19:33.327Z,7.02
2019-05-07T00:22:02.477Z,7.05
2019-05-07T00:24:33.176Z,7.06
2019-05-07T00:27:02.781Z,7.05
2019-05-07T00:29:32.258Z,7.05
2019-05-07T00:32:03.008Z,7.09
2019-05-07T00:34:33.080Z,6.99
2019-05-07T00:37:09.077Z,6.94
2019-05-07T00:39:45.396Z,6.97
2019-05-07T00:42:32.695Z,6.94
2019-05-07T00:45:16.891Z,6.98
2019-05-07T00:47:39.428Z,6.83
2019-05-07T00:50:09.857Z,6.87
2019-05-07T00:52:38.524Z,6.83
2019-05-07T00:55:07.905Z,6.85
2019-05-07T00:57:36.568Z,6.91
2019-05-07T01:00:06.814Z,6.78
2019-05-07T01:02:35.491Z,6.76
2019-05-07T01:05:04.272Z,6.83
2019-05-07T01:07:32.952Z,6.78
2019-05-07T01:10:02.317Z,6.68
2019-05-07T01:12:32.901Z,6.78
2019-05-07T01:15:02.849Z,6.74
2019-05-07T01:17:33.529Z,6.74
2019-05-07T01:20:03.050Z,6.67
2019-05-07T01:22:33.001Z,6.79
2019-05-07T01:25:02.333Z,6.82
2019-05-07T01:27:32.122Z,6.89
2019-05-07T01:30:02.536Z,6.80
2019-05-07T01:32:45.453Z,6.84
2019-05-07T01:35:16.280Z,6.82
2019-05-07T01:37:44.944Z,6.79
2019-05-07T01:40:13.609Z,6.73
2019-05-07T01:42:42.489Z,6.70
2019-05-07T01:45:12.907Z,6.60
2019-05-07T01:47:42.512Z,6.84
2019-05-07T01:50:13.363Z,6.87
2019-05-07T01:52:42.687Z,6.88
2019-05-07T01:55:12.933Z,6.88
2019-05-07T01:57:42.183Z,6.97
2019-05-07T02:00:13.072Z,6.97
2019-05-07T02:02:43.526Z,6.98
2019-05-07T02:05:19.629Z,7.07
2019-05-07T02:07:52.027Z,6.96
2019-05-07T02:10:24.882Z,6.97
2019-05-07T02:12:53.548Z,6.99
2019-05-07T02:15:22.698Z,6.98
2019-05-07T02:17:52.590Z,7.02
2019-05-07T02:20:22.537Z,7.06
2019-05-07T02:22:53.219Z,7.05
2019-05-07T02:25:22.211Z,7.05
2019-05-07T02:27:52.799Z,7.08
2019-05-07T02:30:23.624Z,7.04
2019-05-07T02:32:53.934Z,7.02
2019-05-07T02:35:23.648Z,6.98
2019-05-07T02:37:56.836Z,7.02
2019-05-07T02:40:28.543Z,7.03
2019-05-07T02:42:57.198Z,6.98
2019-05-07T02:45:44.038Z,7.01
2019-05-07T02:48:13.921Z,6.90
2019-05-07T02:51:04.106Z,6.93
2019-05-07T02:53:43.471Z,6.98
2019-05-07T02:56:13.031Z,6.99
2019-05-07T02:58:43.427Z,6.96
2019-05-07T03:01:13.750Z,6.96
2019-05-07T03:03:44.901Z,6.88
2019-05-07T03:06:13.694Z,6.95
2019-05-07T03:08:44.026Z,6.92
2019-05-07T03:11:14.124Z,6.85
2019-05-07T03:13:43.522Z,6.70
2019-05-07T03:16:13.142Z,6.65
2019-05-07T03:18:43.773Z,6.58
2019-05-07T03:21:16.991Z,6.56
2019-05-07T03:23:56.240Z,6.58
2019-05-07T03:26:26.544Z,6.53
2019-05-07T03:28:56.781Z,6.58
2019-05-07T03:31:36.129Z,6.58
2019-05-07T03:34:25.136Z,6.62
2019-05-07T03:36:56.327Z,6.62
2019-05-07T03:39:24.078Z,6.59
2019-05-07T03:41:53.214Z,6.66
2019-05-07T03:44:39.896Z,6.70
2019-05-07T03:47:25.136Z,6.75
2019-05-07T03:49:54.298Z,6.83
2019-05-07T03:52:24.494Z,6.89
2019-05-07T03:54:54.189Z,6.99
2019-05-07T03:57:23.947Z,7.06
2019-05-07T03:59:53.533Z,7.13
2019-05-07T04:02:23.956Z,7.19
2019-05-07T04:04:53.103Z,7.31
2019-05-07T04:07:23.218Z,7.48
2019-05-07T04:09:53.455Z,7.48
2019-05-07T04:12:23.854Z,7.53
2019-05-07T04:14:53.562Z,7.48
2019-05-07T04:17:26.742Z,7.45
2019-05-07T04:19:53.399Z,7.42
2019-05-07T04:22:25.207Z,7.51
2019-05-07T04:25:04.120Z,7.46
2019-05-07T04:27:48.128Z,7.49
2019-05-07T04:30:16.785Z,7.57
2019-05-07T04:32:52.788Z,7.46
2019-05-07T04:35:33.441Z,7.47
2019-05-07T04:38:06.154Z,7.47
2019-05-07T04:40:33.860Z,7.33
2019-05-07T04:43:02.873Z,7.39
2019-05-07T04:45:33.757Z,7.44
2019-05-07T04:48:03.131Z,7.52
2019-05-07T04:50:42.667Z,7.71
2019-05-07T04:53:04.015Z,7.65
2019-05-07T04:55:33.636Z,7.73
2019-05-07T04:58:04.551Z,7.64
2019-05-07T05:00:33.575Z,8.14
2019-05-07T05:03:04.305Z,8.32
2019-05-07T05:05:33.207Z,8.41
2019-05-07T05:08:03.911Z,8.57
2019-05-07T05:10:33.693Z,8.46
2019-05-07T05:13:03.347Z,8.81
2019-05-07T05:15:32.384Z,9.11
2019-05-07T05:18:02.618Z,9.14
2019-05-07T05:20:45.229Z,9.16
2019-05-07T05:23:18.466Z,9.42
2019-05-07T05:25:47.187Z,9.56
2019-05-07T05:28:15.954Z,9.48
2019-05-07T05:30:58.578Z,9.30
2019-05-07T05:33:27.238Z,9.22
2019-05-07T05:35:55.947Z,9.45
2019-05-07T05:38:24.813Z,9.68
2019-05-07T05:40:53.476Z,9.95
2019-05-07T05:43:31.941Z,9.68
2019-05-07T05:46:12.055Z,9.62
2019-05-07T05:48:42.568Z,9.46
2019-05-07T05:51:27.974Z,9.58
2019-05-07T05:54:03.983Z,9.73
2019-05-07T05:56:34.344Z,9.11
2019-05-07T05:59:12.092Z,9.95
2019-05-07T06:01:42.726Z,9.65
2019-05-07T06:04:13.036Z,9.71
2019-05-07T06:06:46.103Z,9.91
2019-05-07T06:09:28.387Z,10.17
2019-05-07T06:12:02.753Z,10.39
2019-05-07T06:14:33.266Z,9.52
2019-05-07T06:17:03.591Z,9.23
2019-05-07T06:19:36.981Z,9.20
2019-05-07T06:22:10.027Z,9.18
2019-05-07T06:24:46.550Z,9.37
2019-05-07T06:27:15.184Z,9.12
2019-05-07T06:29:43.870Z,9.16
2019-05-07T06:32:14.290Z,8.96
2019-05-07T06:34:44.789Z,8.76
2019-05-07T06:37:13.503Z,8.71
2019-05-07T06:39:43.877Z,8.09
2019-05-07T06:42:30.503Z,8.58
2019-05-07T06:45:17.029Z,8.57
2019-05-07T06:47:45.937Z,8.54
2019-05-07T06:50:13.434Z,8.55
2019-05-07T06:52:42.733Z,8.51
2019-05-07T06:55:13.102Z,8.50
2019-05-07T06:57:42.515Z,8.28
2019-05-07T07:00:18.014Z,8.46
2019-05-07T07:02:57.453Z,8.61
2019-05-07T07:05:35.919Z,8.84
2019-05-07T07:08:23.169Z,9.15
2019-05-07T07:11:02.785Z,9.43
2019-05-07T07:13:32.313Z,8.96
2019-05-07T07:16:03.102Z,8.73
2019-05-07T07:18:32.431Z,9.14
2019-05-07T07:21:02.402Z,9.15
2019-05-07T07:23:32.391Z,9.20
2019-05-07T07:26:03.213Z,9.21
2019-05-07T07:28:32.753Z,9.19
2019-05-07T07:31:13.082Z,9.40
2019-05-07T07:33:43.765Z,9.39
2019-05-07T07:36:12.738Z,9.38
2019-05-07T07:38:42.141Z,9.93
2019-05-07T07:41:13.109Z,9.89
2019-05-07T07:43:42.005Z,9.48
2019-05-07T07:46:13.138Z,9.47
2019-05-07T07:48:43.531Z,9.61
2019-05-07T07:51:13.838Z,9.40
2019-05-07T07:53:42.636Z,9.30
2019-05-07T07:56:29.501Z,9.37
2019-05-07T07:59:16.384Z,9.33
2019-05-07T08:01:46.803Z,9.11
2019-05-07T08:04:15.837Z,9.36
2019-05-07T08:09:33.401Z,8.79
2019-05-07T08:12:02.789Z,9.52
2019-05-07T08:14:32.505Z,9.80
2019-05-07T08:17:02.987Z,9.88
2019-05-07T08:19:32.862Z,9.84
2019-05-07T08:22:02.891Z,9.84
2019-05-07T08:24:32.302Z,9.41
2019-05-07T08:27:02.379Z,9.38
2019-05-07T08:29:33.033Z,9.65
2019-05-07T08:32:22.273Z,9.90
2019-05-07T08:34:52.315Z,9.60
2019-05-07T08:37:24.239Z,9.19
2019-05-07T08:39:52.022Z,9.32
2019-05-07T08:42:24.098Z,9.37
2019-05-07T08:45:11.867Z,9.28
2019-05-07T08:47:44.296Z,9.37
2019-05-07T08:50:13.281Z,9.29
2019-05-07T08:52:42.147Z,9.48
2019-05-07T08:55:12.576Z,9.47
2019-05-07T08:57:42.026Z,9.46
2019-05-07T09:00:12.573Z,9.61
2019-05-07T09:02:42.085Z,10.03
2019-05-07T09:05:12.056Z,9.87
2019-05-07T09:07:42.549Z,9.79
2019-05-07T09:10:12.634Z,10.48
2019-05-07T09:12:42.856Z,10.52
2019-05-07T09:15:12.426Z,10.83
2019-05-07T09:17:42.318Z,10.76
2019-05-07T09:20:12.714Z,10.65
2019-05-07T09:22:42.774Z,10.17
2019-05-07T09:25:13.014Z,10.10
2019-05-07T09:27:46.557Z,10.36
2019-05-07T09:30:28.638Z,10.34
2019-05-07T09:32:59.171Z,10.77
2019-05-07T09:35:44.484Z,10.21
2019-05-07T09:38:13.172Z,9.73
2019-05-07T09:40:42.230Z,9.70
2019-05-07T09:43:11.766Z,9.65
2019-05-07T09:45:42.099Z,9.75
2019-05-07T09:48:13.432Z,9.48
2019-05-07T09:50:42.925Z,9.36
2019-05-07T09:53:12.710Z,9.42
2019-05-07T09:55:42.516Z,9.44
2019-05-07T09:58:12.535Z,9.68
2019-05-07T10:00:42.426Z,9.68
2019-05-07T10:03:12.702Z,9.68
2019-05-07T10:05:42.721Z,9.66
2019-05-07T10:08:12.965Z,9.52
2019-05-07T10:10:43.174Z,9.19
2019-05-07T10:18:22.835Z,9.31
2019-05-07T10:20:52.260Z,9.18
2019-05-07T10:33:52.512Z,8.87
2019-05-07T10:36:22.847Z,9.14
2019-05-07T10:38:52.096Z,9.21
2019-05-07T10:41:22.365Z,9.39
2019-05-07T10:43:51.977Z,9.19
2019-05-07T10:46:38.740Z,8.73
2019-05-07T10:49:09.232Z,8.99
2019-05-07T10:51:38.025Z,9.26
2019-05-07T10:54:06.788Z,9.35
2019-05-07T10:56:35.603Z,9.32
2019-05-07T10:59:04.473Z,9.44
2019-05-07T11:01:35.828Z,9.30
2019-05-07T11:04:04.491Z,9.40
2019-05-07T11:06:33.275Z,9.26
2019-05-07T11:09:02.126Z,9.40
2019-05-07T11:11:31.874Z,9.37
2019-05-07T11:14:01.951Z,8.99
2019-05-07T11:16:32.924Z,8.79
2019-05-07T11:19:02.041Z,8.74
2019-05-07T11:21:32.989Z,8.72
2019-05-07T11:24:03.237Z,8.75
2019-05-07T11:28:57.596Z,9.20
2019-05-07T11:31:26.333Z,9.21
2019-05-07T11:33:55.226Z,9.05
2019-05-07T11:36:23.985Z,8.92
2019-05-07T11:38:52.806Z,8.81
2019-05-07T11:41:23.083Z,8.55
2019-05-07T11:43:56.191Z,8.52
2019-05-07T11:46:26.465Z,8.25
2019-05-07T11:48:59.930Z,8.26
2019-05-07T11:51:36.276Z,8.27
2019-05-07T11:54:09.468Z,8.26
2019-05-07T11:56:38.510Z,8.01
2019-05-07T11:59:07.783Z,8.12
2019-05-07T12:01:44.500Z,8.12
2019-05-07T12:04:09.218Z,8.22
2019-05-07T12:06:38.380Z,8.22
2019-05-07T12:09:08.479Z,8.18
2019-05-07T12:11:37.515Z,8.32
2019-05-07T12:14:06.223Z,8.72
2019-05-07T12:16:35.031Z,8.41
2019-05-07T12:19:03.832Z,8.38
2019-05-07T12:21:33.145Z,8.14
2019-05-07T12:24:02.244Z,8.30
2019-05-07T12:26:32.746Z,8.42
2019-05-07T12:29:01.749Z,8.61
2019-05-07T12:31:48.642Z,8.42
2019-05-07T12:34:22.901Z,8.17
2019-05-07T12:36:52.512Z,8.30
2019-05-07T12:39:22.062Z,8.15
2019-05-07T12:41:52.487Z,8.20
2019-05-07T12:44:22.231Z,8.19
2019-05-07T12:46:52.452Z,8.38
2019-05-07T12:49:22.108Z,8.40
2019-05-07T12:51:52.656Z,8.38
2019-05-07T12:54:22.937Z,8.35
2019-05-07T12:56:52.087Z,8.49
2019-05-07T12:59:21.840Z,8.15
2019-05-07T13:02:17.803Z,8.35
2019-05-07T13:04:36.515Z,8.50
2019-05-07T13:07:13.617Z,8.59
2019-05-07T13:09:42.839Z,8.56
2019-05-07T13:12:11.734Z,8.54
2019-05-07T13:14:40.433Z,8.58
2019-05-07T13:17:09.223Z,8.68
2019-05-07T13:19:39.267Z,8.81
2019-05-07T13:22:08.148Z,8.66
2019-05-07T13:24:36.863Z,8.45
2019-05-07T13:27:05.772Z,8.30
2019-05-07T13:29:34.452Z,8.59
2019-05-07T13:32:03.927Z,8.84
2019-05-07T13:34:34.141Z,8.59
2019-05-07T13:37:13.709Z,8.67
2019-05-07T13:39:46.865Z,8.63
2019-05-07T13:42:33.574Z,8.40
2019-05-07T13:45:04.125Z,8.00
2019-05-07T13:47:34.696Z,7.76
2019-05-07T13:50:03.711Z,7.83
2019-05-07T13:52:33.279Z,7.70
2019-05-07T13:55:02.197Z,7.44
2019-05-07T13:57:32.272Z,7.51
2019-05-07T14:00:02.363Z,7.39
2019-05-07T14:02:33.061Z,7.39
2019-05-07T14:05:01.878Z,7.30
2019-05-07T14:07:32.357Z,7.44
2019-05-07T14:10:02.097Z,7.55
2019-05-07T14:12:33.514Z,7.51
2019-05-07T14:15:02.344Z,7.19
2019-05-07T14:17:31.053Z,7.12
2019-05-07T14:20:01.842Z,7.03
2019-05-07T14:22:31.817Z,7.02
2019-05-07T14:25:00.746Z,7.09
2019-05-07T14:27:29.544Z,7.00
2019-05-07T14:29:58.612Z,7.12
2019-05-07T14:32:28.901Z,7.15
2019-05-07T14:35:05.584Z,7.17
2019-05-07T14:37:39.082Z,7.13
2019-05-07T14:40:07.973Z,7.00
2019-05-07T14:42:38.551Z,7.22
2019-05-07T14:45:07.856Z,7.26
2019-05-07T14:47:36.896Z,7.32
2019-05-07T14:50:07.134Z,7.56
2019-05-07T14:52:36.375Z,7.45
2019-05-07T14:55:09.246Z,7.27
2019-05-07T14:57:37.933Z,7.26
2019-05-07T15:00:07.814Z,7.15
2019-05-07T15:02:36.502Z,7.11
2019-05-07T15:05:09.047Z,7.11
2019-05-07T15:07:37.956Z,7.15
2019-05-07T15:10:07.535Z,7.12
2019-05-07T15:12:36.272Z,7.03
2019-05-07T15:15:06.957Z,6.92
2019-05-07T15:17:37.298Z,6.96
2019-05-07T15:20:06.072Z,7.04
2019-05-07T15:22:49.180Z,6.97
2019-05-07T15:25:12.697Z,6.94
2019-05-07T15:27:42.148Z,6.89
2019-05-07T15:30:11.324Z,6.83
2019-05-07T15:32:42.646Z,6.84
2019-05-07T15:35:12.620Z,6.83
2019-05-07T15:37:42.691Z,6.87
2019-05-07T15:40:12.016Z,6.89
2019-05-07T15:42:42.106Z,6.87
2019-05-07T15:45:12.502Z,6.76
2019-05-07T15:47:48.695Z,6.97
2019-05-07T15:50:17.980Z,6.97
2019-05-07T15:52:58.217Z,7.01
2019-05-07T15:55:18.631Z,7.00
2019-05-07T15:57:47.729Z,7.07
2019-05-07T16:00:18.842Z,7.17
2019-05-07T16:02:49.090Z,7.30
2019-05-07T16:05:19.252Z,7.30
2019-05-07T16:07:49.337Z,7.29
2019-05-07T16:10:18.161Z,7.31
2019-05-07T16:12:47.252Z,7.23
2019-05-07T16:15:16.043Z,7.21
2019-05-07T16:17:58.363Z,7.33
2019-05-07T16:20:27.041Z,7.37
2019-05-07T16:23:14.302Z,7.36
2019-05-07T16:25:33.311Z,7.44
2019-05-07T16:28:04.885Z,7.39
2019-05-07T16:30:32.703Z,7.41
2019-05-07T16:33:02.081Z,7.49
2019-05-07T16:35:32.007Z,7.48
2019-05-07T16:38:00.940Z,7.39
2019-05-07T16:40:29.701Z,7.27
2019-05-07T16:42:58.408Z,7.38
2019-05-07T16:45:27.047Z,7.19
2019-05-07T16:47:55.731Z,7.24
2019-05-07T16:50:24.517Z,7.28
2019-05-07T16:52:53.217Z,7.29
2019-05-07T16:55:23.463Z,7.35
2019-05-07T16:57:56.729Z,7.41
2019-05-07T17:00:35.956Z,7.43
2019-05-07T17:03:06.622Z,7.40
2019-05-07T17:05:35.317Z,7.49
2019-05-07T17:08:05.665Z,7.36
2019-05-07T17:10:34.327Z,7.59
2019-05-07T17:13:03.034Z,7.49
2019-05-07T17:15:33.239Z,7.48
2019-05-07T17:18:02.784Z,7.52
2019-05-07T17:20:32.827Z,7.44
2019-05-07T17:23:02.938Z,7.46
2019-05-07T17:25:38.062Z,7.47
2019-05-07T17:28:08.896Z,7.48
2019-05-07T17:30:38.270Z,7.55
2019-05-07T17:33:07.369Z,7.44
2019-05-07T17:35:36.027Z,7.47
2019-05-07T17:38:09.423Z,7.51
2019-05-07T17:40:35.331Z,7.39
2019-05-07T17:43:04.305Z,7.44
2019-05-07T17:45:33.140Z,7.33
2019-05-07T17:48:03.133Z,7.38
2019-05-07T17:50:46.293Z,7.42
2019-05-07T17:53:15.062Z,7.38
2019-05-07T17:55:43.737Z,7.32
2019-05-07T17:58:12.988Z,7.40
2019-05-07T18:00:43.810Z,7.48
2019-05-07T18:03:32.277Z,7.49
2019-05-07T18:06:02.208Z,7.52
2019-05-07T18:08:32.577Z,7.40
2019-05-07T18:11:02.330Z,7.39
2019-05-07T18:13:32.452Z,7.46
2019-05-07T18:16:03.123Z,7.51
2019-05-07T18:18:32.833Z,7.59
2019-05-07T18:21:02.279Z,7.63
2019-05-07T18:23:32.211Z,7.64
2019-05-07T18:26:01.129Z,7.59
2019-05-07T18:28:29.809Z,7.68
2019-05-07T18:30:59.084Z,7.69
2019-05-07T18:33:29.319Z,7.66
2019-05-07T18:35:57.994Z,7.72
2019-05-07T18:38:26.685Z,7.55
2019-05-07T18:40:55.382Z,7.75
2019-05-07T18:43:24.078Z,7.70
2019-05-07T18:45:52.805Z,7.70
2019-05-07T18:48:22.446Z,7.61
2019-05-07T18:50:52.210Z,7.68
2019-05-07T18:53:22.664Z,7.72
2019-05-07T18:55:51.780Z,7.77
2019-05-07T18:58:22.464Z,7.74
2019-05-07T19:00:55.706Z,7.82
2019-05-07T19:03:25.426Z,7.72
2019-05-07T19:05:54.681Z,7.80
2019-05-07T19:08:23.374Z,7.83
2019-05-07T19:10:52.335Z,7.85
2019-05-07T19:13:22.201Z,7.89
2019-05-07T19:15:52.982Z,7.91
2019-05-07T19:18:22.828Z,7.96
2019-05-07T19:20:52.932Z,7.98
2019-05-07T19:23:22.432Z,7.95
2019-05-07T19:25:52.313Z,7.94
2019-05-07T19:28:22.476Z,7.93
2019-05-07T19:30:52.839Z,7.94
2019-05-07T19:33:26.731Z,7.94
2019-05-07T19:35:52.952Z,7.95
2019-05-07T19:38:21.942Z,7.80
2019-05-07T19:40:52.620Z,7.87
2019-05-07T19:43:21.013Z,7.90
2019-05-07T19:45:49.689Z,7.92
2019-05-07T19:48:18.345Z,7.94
2019-05-07T19:50:47.016Z,7.88
2019-05-07T19:53:15.692Z,7.86
2019-05-07T19:56:02.157Z,7.76
2019-05-07T19:58:32.692Z,7.78
2019-05-07T20:01:02.605Z,7.70
2019-05-07T20:03:33.244Z,7.76
2019-05-07T20:06:02.500Z,7.79
2019-05-07T20:08:32.384Z,7.75
2019-05-07T20:11:03.128Z,7.51
2019-05-07T20:13:32.442Z,7.72
2019-05-07T20:16:02.932Z,7.70
2019-05-07T20:18:33.094Z,7.74
2019-05-07T20:21:02.713Z,7.68
2019-05-07T20:23:32.667Z,7.67
2019-05-07T20:26:02.982Z,7.68
2019-05-07T20:28:32.558Z,7.75
2019-05-07T20:31:01.611Z,7.79
2019-05-07T20:33:32.546Z,7.77
2019-05-07T20:36:02.609Z,7.70
2019-05-07T20:38:34.538Z,7.70
2019-05-07T20:41:03.431Z,7.73
2019-05-07T20:43:32.744Z,7.74
2019-05-07T20:46:02.664Z,7.72
2019-05-07T20:48:32.533Z,7.72
2019-05-07T20:51:01.312Z,7.73
2019-05-07T20:53:47.916Z,7.78
2019-05-07T20:56:18.171Z,7.70
2019-05-07T20:58:46.830Z,7.71
2019-05-07T21:01:15.506Z,7.73
2019-05-07T21:03:44.165Z,7.70
2019-05-07T21:06:12.830Z,7.71
2019-05-07T21:08:42.810Z,7.73
2019-05-07T21:11:12.045Z,7.74
2019-05-07T21:13:42.608Z,7.77
2019-05-07T21:16:12.649Z,7.80
2019-05-07T21:18:42.138Z,7.80
2019-05-07T21:21:12.545Z,7.82
2019-05-07T21:23:43.369Z,7.82
2019-05-07T21:26:13.034Z,7.84
2019-05-07T21:28:43.260Z,7.84
2019-05-07T21:31:12.236Z,7.83
2019-05-07T21:33:42.932Z,7.74
2019-05-07T21:36:12.065Z,7.74
2019-05-07T21:38:42.579Z,7.79
2019-05-07T21:41:12.885Z,7.87
2019-05-07T21:43:44.228Z,7.93
2019-05-07T21:46:12.865Z,7.88
2019-05-07T21:48:41.645Z,7.85
2019-05-07T21:51:12.149Z,7.85
2019-05-07T21:53:58.935Z,7.80
2019-05-07T21:56:29.172Z,7.86
2019-05-07T21:58:57.022Z,7.96
2019-05-07T22:01:27.359Z,7.96
2019-05-07T22:03:57.610Z,7.95
2019-05-07T22:06:26.297Z,8.00
2019-05-07T22:08:54.999Z,8.03
2019-05-07T22:11:23.723Z,7.98
2019-05-07T22:13:54.726Z,7.92
2019-05-07T22:16:22.790Z,7.92
2019-05-07T22:18:52.155Z,7.98
2019-05-07T22:21:21.038Z,8.01
2019-05-07T22:23:52.054Z,8.01
2019-05-07T22:26:24.897Z,7.97
2019-05-07T22:28:53.824Z,7.98
2019-05-07T22:31:22.527Z,7.92
2019-05-07T22:33:59.423Z,7.94
2019-05-07T22:36:28.174Z,7.98
2019-05-07T22:38:56.824Z,7.96
2019-05-07T22:41:25.513Z,7.93
2019-05-07T22:43:54.169Z,7.93
2019-05-07T22:46:22.891Z,7.93
2019-05-07T22:48:51.580Z,7.95
2019-05-07T22:51:20.260Z,7.95
2019-05-07T22:53:48.936Z,7.91
2019-05-07T22:56:30.414Z,7.91
2019-05-07T22:58:52.675Z,7.86
2019-05-07T23:01:22.628Z,7.82
2019-05-07T23:03:51.830Z,7.78
2019-05-07T23:06:23.130Z,7.80
2019-05-07T23:08:52.914Z,7.74
2019-05-07T23:11:22.832Z,7.74
2019-05-07T23:13:54.436Z,7.77
2019-05-07T23:16:23.146Z,7.72
2019-05-07T23:18:52.012Z,7.80
2019-05-07T23:21:24.383Z,7.78
2019-05-07T23:23:52.752Z,7.76
2019-05-07T23:26:23.354Z,7.81
2019-05-07T23:28:52.104Z,7.81
2019-05-07T23:31:22.852Z,7.80
2019-05-07T23:33:52.375Z,7.82
2019-05-07T23:36:22.440Z,7.80
2019-05-07T23:38:52.071Z,7.78
2019-05-07T23:41:22.645Z,7.80
2019-05-07T23:44:09.140Z,7.77
2019-05-07T23:46:37.806Z,7.79
2019-05-07T23:49:06.523Z,7.82
2019-05-07T23:51:35.382Z,7.76
2019-05-07T23:54:04.078Z,7.80
2019-05-07T23:56:33.025Z,7.75
2019-05-07T23:59:01.966Z,7.73
